Time;durP1;ratioP1;P1;durP2;ratioP2;P2;SDS_P1;SDS_P2;PMS_P1;PMS_P2;Temp;Humidity;BMP_temperature;BMP_pressure;BME280_temperature;BME280_humidity;BME280_pressure;Samples;Min_cycle;Max_cycle;Signal;HPM_P1;HPM_P2
2022/04/13 00:01:17;;;;;;;10.85;5.25;;;13.10;99.90;;;;;;5054827;28;20075;-80
2022/04/13 00:03:43;;;;;;;9.25;5.50;;;13.10;99.90;;;;;;5087292;28;20036;-80
2022/04/13 00:06:09;;;;;;;8.32;6.03;;;13.00;99.90;;;;;;5053654;28;20048;-80
2022/04/13 00:08:35;;;;;;;10.75;5.57;;;13.00;99.90;;;;;;5068566;28;20093;-81
2022/04/13 00:11:01;;;;;;;10.50;6.15;;;13.00;99.90;;;;;;5053102;28;20040;-81
2022/04/13 00:13:27;;;;;;;10.63;5.82;;;13.00;99.90;;;;;;5069760;28;20048;-81
2022/04/13 00:30:30;;;;;;;7.43;5.90;;;12.60;99.90;;;;;;5081939;28;20058;-80
2022/04/13 00:32:55;;;;;;;9.63;6.05;;;12.60;99.90;;;;;;5071633;28;20043;-80
2022/04/13 00:35:21;;;;;;;13.10;6.53;;;12.60;99.90;;;;;;5107480;28;20047;-80
2022/04/13 00:37:47;;;;;;;12.73;6.70;;;12.50;99.90;;;;;;5071214;28;20108;-80
2022/04/13 00:40:12;;;;;;;12.75;6.50;;;12.40;99.90;;;;;;5089665;28;20054;-81
2022/04/13 00:42:38;;;;;;;9.75;6.38;;;12.30;99.90;;;;;;5088126;28;20040;-81
2022/04/13 00:45:04;;;;;;;12.90;6.25;;;12.30;99.90;;;;;;5072672;28;20040;-80
2022/04/13 00:47:30;;;;;;;11.70;6.60;;;12.20;99.90;;;;;;5072526;28;20429;-81
2022/04/13 00:49:56;;;;;;;8.70;6.35;;;12.20;99.90;;;;;;5071531;28;20039;-81
2022/04/13 00:52:26;;;;;;;7.35;5.43;;;12.20;99.90;;;;;;5072730;28;20503;-81
2022/04/13 00:54:54;;;;;;;8.18;5.40;;;12.20;99.90;;;;;;5106103;28;20143;-81
2022/04/13 00:57:21;;;;;;;6.28;4.47;;;12.20;99.90;;;;;;5089478;28;20480;-81
2022/04/13 00:59:51;;;;;;;7.85;4.95;;;12.20;99.90;;;;;;5071855;28;20414;-81
2022/04/13 01:02:19;;;;;;;12.25;5.05;;;12.20;99.90;;;;;;5090088;28;20044;-81
2022/04/13 01:04:46;;;;;;;14.40;5.72;;;12.30;99.90;;;;;;5107655;28;20398;-81
2022/04/13 01:07:12;;;;;;;8.57;5.28;;;12.40;99.90;;;;;;5106587;28;20043;-80
2022/04/13 01:09:38;;;;;;;7.47;4.88;;;12.40;99.90;;;;;;5107736;28;20462;-78
2022/04/13 01:12:04;;;;;;;11.30;4.28;;;12.50;99.90;;;;;;5106241;28;20122;-80
2022/04/13 01:14:30;;;;;;;11.15;5.07;;;12.50;99.90;;;;;;5089906;28;20395;-80
2022/04/13 01:16:57;;;;;;;12.05;4.78;;;12.60;99.90;;;;;;5088345;28;20039;-80
2022/04/13 01:19:23;;;;;;;7.75;4.60;;;13.60;99.90;;;;;;5089140;28;20094;-79
2022/04/13 01:21:53;;;;;;;8.23;5.40;;;12.60;99.90;;;;;;5110697;28;20132;-80
2022/04/13 01:24:20;;;;;;;9.00;5.60;;;13.70;99.90;;;;;;5092804;28;20704;-80
2022/04/13 01:26:47;;;;;;;11.05;5.45;;;12.60;99.90;;;;;;5093434;28;20545;-81
2022/04/13 01:29:13;;;;;;;11.02;5.50;;;12.60;99.90;;;;;;5110566;28;20051;-81
2022/04/13 01:31:40;;;;;;;10.30;5.13;;;12.70;99.90;;;;;;5073730;28;20115;-81
2022/04/13 01:34:07;;;;;;;8.68;5.82;;;12.70;99.90;;;;;;5074649;28;20407;-80
2022/04/13 01:36:34;;;;;;;8.38;5.20;;;12.70;99.90;;;;;;5093171;28;20059;-79
2022/04/13 01:39:00;;;;;;;10.57;5.10;;;12.70;99.90;;;;;;5083293;28;20048;-80
2022/04/13 01:41:26;;;;;;;10.82;5.03;;;12.70;99.90;;;;;;5097043;28;20113;-81
2022/04/13 01:43:51;;;;;;;8.98;5.53;;;12.70;99.90;;;;;;5090890;28;20139;-80
2022/04/13 01:46:17;;;;;;;8.57;5.72;;;12.80;99.90;;;;;;5071042;28;20060;-80
2022/04/13 01:48:43;;;;;;;9.80;5.35;;;12.70;99.90;;;;;;5039062;28;20050;-80
2022/04/13 01:51:09;;;;;;;8.40;5.13;;;12.70;99.90;;;;;;5071438;28;20559;-80
2022/04/13 01:53:35;;;;;;;11.07;5.53;;;12.70;99.90;;;;;;5072232;28;20083;-80
2022/04/13 01:56:01;;;;;;;7.95;5.53;;;12.60;99.90;;;;;;5072340;28;20048;-80
2022/04/13 01:58:27;;;;;;;8.38;5.43;;;12.60;99.90;;;;;;5071008;28;20043;-80
2022/04/13 02:00:56;;;;;;;8.80;5.35;;;12.60;99.90;;;;;;5089159;28;20048;-80
2022/04/13 02:03:23;;;;;;;9.70;6.25;;;12.60;99.90;;;;;;5088726;28;20055;-81
2022/04/13 02:05:52;;;;;;;8.43;5.43;;;12.60;99.90;;;;;;5090243;28;20052;-81
2022/04/13 02:08:18;;;;;;;9.20;6.05;;;12.60;99.90;;;;;;5088532;28;20051;-80
2022/04/13 02:10:44;;;;;;;9.95;6.60;;;12.60;99.90;;;;;;5088347;28;20054;-80
2022/04/13 02:13:10;;;;;;;11.82;6.78;;;12.60;99.90;;;;;;5071859;28;20119;-80
2022/04/13 02:15:36;;;;;;;14.82;6.20;;;13.50;99.90;;;;;;5070556;28;20066;-80
2022/04/13 02:18:02;;;;;;;11.80;6.15;;;12.80;99.90;;;;;;5071832;28;20134;-80
2022/04/13 02:20:28;;;;;;;7.63;6.15;;;12.60;99.90;;;;;;5070727;28;20048;-81
2022/04/13 02:22:53;;;;;;;12.77;6.35;;;12.60;99.90;;;;;;5089884;28;20036;-80
2022/04/13 02:25:19;;;;;;;9.25;5.82;;;12.60;99.90;;;;;;5054534;28;20044;-80
2022/04/13 02:27:45;;;;;;;10.75;6.82;;;12.60;99.90;;;;;;5071281;28;20043;-80
2022/04/13 02:30:11;;;;;;;11.07;6.68;;;12.60;99.90;;;;;;5090471;28;20032;-80
2022/04/13 02:32:43;;;;;;;9.75;6.47;;;12.70;99.90;;;;;;5090234;28;20414;-80
2022/04/13 02:35:09;;;;;;;11.32;6.43;;;13.90;99.90;;;;;;5110183;28;20054;-80
2022/04/13 02:37:35;;;;;;;10.50;5.95;;;12.70;99.90;;;;;;5090157;28;20043;-80
2022/04/13 02:40:02;;;;;;;14.00;6.57;;;12.70;99.90;;;;;;5074655;28;20055;-80
2022/04/13 02:42:32;;;;;;;11.00;6.57;;;12.60;99.90;;;;;;5091110;28;20163;-81
2022/04/13 02:44:58;;;;;;;11.15;7.18;;;12.70;99.90;;;;;;5109835;28;20062;-80
2022/04/13 02:47:24;;;;;;;12.93;7.60;;;12.70;99.90;;;;;;5074811;28;20119;-80
2022/04/13 02:49:49;;;;;;;12.77;6.72;;;12.70;99.90;;;;;;5108568;28;20043;-79
2022/04/13 02:52:15;;;;;;;13.10;7.32;;;12.70;99.90;;;;;;5091362;28;20044;-80
2022/04/13 02:54:41;;;;;;;13.82;7.57;;;13.00;99.90;;;;;;5108487;28;20116;-79
2022/04/13 02:57:06;;;;;;;15.13;7.80;;;12.70;99.90;;;;;;5091287;28;20475;-80
2022/04/13 02:59:33;;;;;;;16.00;7.93;;;12.60;99.90;;;;;;5074415;28;20043;-80
2022/04/13 03:01:58;;;;;;;15.10;8.60;;;12.90;99.90;;;;;;5073760;28;20065;-80
2022/04/13 03:04:24;;;;;;;15.70;8.13;;;12.70;99.90;;;;;;5074304;28;20036;-80
2022/04/13 03:06:50;;;;;;;15.15;8.63;;;12.70;99.90;;;;;;5089861;28;20052;-80
2022/04/13 03:09:15;;;;;;;16.70;8.38;;;12.70;99.90;;;;;;5074160;28;20039;-79
2022/04/13 03:11:41;;;;;;;15.32;7.80;;;12.70;99.90;;;;;;5089934;28;20496;-80
2022/04/13 03:14:07;;;;;;;15.32;8.27;;;12.70;99.90;;;;;;5075316;28;20111;-80
2022/04/13 03:16:32;;;;;;;15.50;8.35;;;12.70;99.90;;;;;;5092923;28;20358;-80
2022/04/13 03:18:58;;;;;;;12.20;7.32;;;12.70;99.90;;;;;;5116095;28;20044;-80
2022/04/13 03:21:24;;;;;;;17.70;7.82;;;12.80;99.90;;;;;;5095420;28;20044;-81
2022/04/13 03:23:50;;;;;;;19.05;7.93;;;12.70;99.90;;;;;;5091219;28;20566;-79
2022/04/13 03:26:16;;;;;;;14.80;8.23;;;13.40;99.90;;;;;;5109149;28;20047;-80
2022/04/13 03:28:42;;;;;;;14.95;7.45;;;12.70;99.90;;;;;;5090145;28;20115;-80
2022/04/13 03:31:08;;;;;;;16.30;7.93;;;12.70;99.90;;;;;;5087366;28;20036;-80
2022/04/13 03:33:33;;;;;;;12.35;7.68;;;12.70;99.90;;;;;;5086983;28;20134;-80
2022/04/13 03:35:59;;;;;;;17.70;7.88;;;12.70;99.90;;;;;;5087113;28;20569;-80
2022/04/13 03:38:25;;;;;;;14.88;7.93;;;13.00;99.90;;;;;;5087597;28;20406;-80
2022/04/13 03:40:51;;;;;;;14.05;7.32;;;13.20;99.90;;;;;;5069659;28;20118;-80
2022/04/13 03:43:16;;;;;;;15.50;7.50;;;12.70;99.90;;;;;;5086703;28;20581;-81
2022/04/13 03:45:42;;;;;;;12.32;7.90;;;12.60;99.90;;;;;;5087282;28;20072;-81
2022/04/13 03:48:08;;;;;;;18.17;8.32;;;12.60;99.90;;;;;;5070116;28;20055;-80
2022/04/13 03:50:34;;;;;;;14.65;7.82;;;12.60;99.90;;;;;;5087192;28;20036;-80
2022/04/13 03:52:59;;;;;;;14.90;8.18;;;12.50;99.90;;;;;;5086571;28;20048;-81
2022/04/13 03:55:25;;;;;;;15.95;8.45;;;12.50;99.90;;;;;;5087762;28;20160;-81
2022/04/13 03:57:51;;;;;;;15.35;8.15;;;12.60;99.90;;;;;;5087391;28;20121;-81
2022/04/13 04:00:17;;;;;;;13.77;8.38;;;12.50;99.90;;;;;;5087050;28;20105;-80
2022/04/13 04:02:43;;;;;;;16.45;8.27;;;12.30;99.90;;;;;;5086848;28;20075;-80
2022/04/13 04:05:12;;;;;;;13.77;8.25;;;12.30;99.90;;;;;;5086542;28;20075;-81
2022/04/13 04:07:38;;;;;;;18.08;8.82;;;12.30;99.90;;;;;;5085250;28;20044;-80
2022/04/13 04:10:05;;;;;;;11.00;7.70;;;12.30;99.90;;;;;;5069174;28;20132;-79
2022/04/13 04:12:37;;;;;;;17.42;8.85;;;12.20;99.90;;;;;;5087572;28;20118;-81
2022/04/13 04:15:03;;;;;;;17.80;9.15;;;12.40;99.90;;;;;;5086683;28;20084;-80
2022/04/13 04:17:28;;;;;;;18.35;9.10;;;12.10;99.90;;;;;;5086809;28;20040;-81
2022/04/13 04:19:54;;;;;;;15.48;9.05;;;12.10;99.90;;;;;;5085138;28;20067;-79
2022/04/13 04:22:23;;;;;;;18.98;10.48;;;12.10;99.90;;;;;;5069260;28;20047;-81
2022/04/13 04:24:48;;;;;;;19.20;9.80;;;12.10;99.90;;;;;;5086990;28;20434;-80
2022/04/13 04:27:14;;;;;;;17.50;9.48;;;12.00;99.90;;;;;;5052925;28;20538;-81
2022/04/13 04:29:40;;;;;;;20.17;9.98;;;12.00;99.90;;;;;;5088197;28;20044;-80
2022/04/13 04:32:06;;;;;;;19.52;9.65;;;12.10;99.90;;;;;;5068282;28;20055;-80
2022/04/13 04:34:33;;;;;;;17.90;10.57;;;12.00;99.90;;;;;;5086446;28;20109;-81
2022/04/13 04:36:59;;;;;;;19.23;9.38;;;12.00;99.90;;;;;;5085037;28;20083;-81
2022/04/13 04:39:25;;;;;;;17.15;9.77;;;12.00;99.90;;;;;;5087825;28;20032;-81
2022/04/13 04:41:51;;;;;;;16.90;10.35;;;11.90;99.90;;;;;;5085329;28;20048;-80
2022/04/13 04:44:17;;;;;;;17.70;10.02;;;12.90;99.90;;;;;;5086060;28;20085;-80
2022/04/13 04:46:44;;;;;;;19.08;9.40;;;12.00;99.90;;;;;;5087588;28;20044;-81
2022/04/13 04:49:09;;;;;;;15.38;9.70;;;11.80;99.90;;;;;;5086673;28;20471;-80
2022/04/13 04:51:35;;;;;;;19.13;10.75;;;11.70;99.90;;;;;;5086681;28;20102;-79
2022/04/13 04:54:02;;;;;;;20.73;10.23;;;11.80;99.90;;;;;;5087291;28;20135;-79
2022/04/13 04:56:28;;;;;;;14.73;9.38;;;11.70;99.90;;;;;;5093565;28;20544;-79
2022/04/13 04:58:54;;;;;;;18.17;9.75;;;11.80;99.90;;;;;;5075036;28;20036;-81
2022/04/13 05:01:20;;;;;;;19.10;9.48;;;11.80;99.90;;;;;;5092565;28;20044;-79
2022/04/13 05:03:49;;;;;;;19.40;10.70;;;12.30;99.90;;;;;;5090737;28;20040;-80
2022/04/13 05:06:28;;;;;;;21.42;10.55;;;11.90;99.90;;;;;;5072862;28;20487;-84
2022/04/13 05:08:57;;;;;;;20.27;10.70;;;11.90;99.90;;;;;;5091693;28;20101;-81
2022/04/13 05:11:23;;;;;;;18.45;10.45;;;11.90;99.90;;;;;;5090402;28;20040;-80
2022/04/13 05:13:50;;;;;;;18.65;10.48;;;11.90;99.90;;;;;;5091316;28;20036;-79
2022/04/13 05:16:17;;;;;;;20.58;9.43;;;11.90;99.90;;;;;;5090875;28;20105;-78
2022/04/13 05:18:47;;;;;;;19.00;9.65;;;12.60;99.90;;;;;;5089282;28;20491;-79
2022/04/13 05:21:14;;;;;;;16.63;10.13;;;12.40;99.90;;;;;;5073463;28;20445;-79
2022/04/13 05:23:41;;;;;;;18.73;9.95;;;12.80;99.90;;;;;;5071769;28;20040;-79
2022/04/13 05:26:07;;;;;;;15.60;9.40;;;12.00;99.90;;;;;;5089868;28;20048;-80
2022/04/13 05:28:32;;;;;;;14.35;8.73;;;12.10;99.90;;;;;;5090190;28;20074;-78
2022/04/13 05:30:58;;;;;;;15.75;9.85;;;12.10;99.90;;;;;;5090612;28;20044;-78
2022/04/13 05:33:24;;;;;;;15.90;9.52;;;12.10;99.90;;;;;;5092540;28;20047;-77
2022/04/13 05:35:50;;;;;;;19.90;10.02;;;12.60;99.90;;;;;;5110765;28;20047;-78
2022/04/13 05:38:16;;;;;;;15.95;9.25;;;12.30;99.90;;;;;;5111547;28;20054;-80
2022/04/13 05:40:42;;;;;;;19.15;9.30;;;12.40;99.90;;;;;;5092397;28;20162;-79
2022/04/13 05:43:08;;;;;;;13.65;9.07;;;12.40;99.90;;;;;;5111385;28;20383;-79
2022/04/13 05:45:34;;;;;;;18.45;9.90;;;12.40;99.90;;;;;;5074690;28;20039;-81
2022/04/13 05:48:00;;;;;;;19.17;9.98;;;12.50;99.90;;;;;;5075646;28;20040;-79
2022/04/13 05:50:26;;;;;;;21.05;9.55;;;12.70;99.90;;;;;;5074977;28;20379;-78
2022/04/13 05:52:51;;;;;;;19.60;9.70;;;12.60;99.90;;;;;;5074951;28;20134;-79
2022/04/13 05:55:17;;;;;;;19.08;11.02;;;12.50;99.90;;;;;;5076107;28;20073;-80
2022/04/13 05:57:43;;;;;;;13.88;9.32;;;12.80;99.90;;;;;;5091288;28;20399;-80
2022/04/13 06:00:11;;;;;;;20.63;10.30;;;12.60;99.90;;;;;;5092601;28;20047;-79
2022/04/13 06:02:37;;;;;;;21.08;10.13;;;12.60;99.90;;;;;;5073536;28;20097;-83
2022/04/13 06:05:07;;;;;;;17.10;9.45;;;12.80;99.90;;;;;;5075352;28;20044;-80
2022/04/13 06:07:33;;;;;;;14.02;9.65;;;12.70;99.90;;;;;;5074129;28;20051;-81
2022/04/13 06:10:03;;;;;;;20.83;10.23;;;13.40;99.90;;;;;;5091796;28;20414;-82
2022/04/13 06:12:29;;;;;;;26.27;10.18;;;12.90;99.90;;;;;;5075541;28;20042;-80
2022/04/13 06:15:06;;;;;;;22.20;10.18;;;13.00;99.90;;;;;;5074013;28;20036;-82
2022/04/13 06:17:32;;;;;;;21.60;10.30;;;13.10;99.90;;;;;;5075520;28;20499;-81
2022/04/13 06:19:58;;;;;;;20.42;10.48;;;13.20;99.90;;;;;;5092004;28;20058;-81
2022/04/13 06:22:25;;;;;;;26.48;10.52;;;13.20;99.90;;;;;;5076272;28;20044;-82
2022/04/13 06:24:51;;;;;;;23.90;11.68;;;13.30;99.90;;;;;;5044345;28;20043;-81
2022/04/13 06:27:19;;;;;;;18.42;11.02;;;13.30;99.90;;;;;;5092351;28;20040;-80
2022/04/13 06:29:45;;;;;;;17.67;10.10;;;13.30;99.90;;;;;;5092313;28;20051;-80
2022/04/13 06:32:12;;;;;;;15.52;10.20;;;13.50;99.90;;;;;;5090781;28;20063;-80
2022/04/13 06:34:38;;;;;;;19.50;10.73;;;13.40;99.90;;;;;;5112864;28;20043;-81
2022/04/13 06:37:05;;;;;;;22.60;10.50;;;13.50;99.90;;;;;;5112632;28;20047;-81
2022/04/13 06:39:30;;;;;;;19.35;10.32;;;13.40;99.90;;;;;;5077446;28;20600;-81
2022/04/13 06:41:56;;;;;;;19.25;9.95;;;13.40;99.90;;;;;;5093290;28;20061;-81
2022/04/13 06:44:22;;;;;;;14.27;9.20;;;13.40;99.90;;;;;;5091321;28;20482;-81
2022/04/13 06:46:47;;;;;;;20.77;10.77;;;13.40;99.90;;;;;;5091899;28;20505;-81
2022/04/13 06:49:13;;;;;;;20.15;10.13;;;13.40;99.90;;;;;;5090272;28;20104;-82
2022/04/13 06:51:39;;;;;;;14.98;10.25;;;13.40;99.90;;;;;;5091326;28;20044;-81
2022/04/13 06:54:05;;;;;;;19.08;10.13;;;13.40;99.90;;;;;;5057195;28;20055;-81
2022/04/13 06:56:32;;;;;;;15.80;10.25;;;13.40;99.90;;;;;;5109381;28;20070;-82
2022/04/13 06:58:58;;;;;;;17.15;9.43;;;13.50;99.90;;;;;;5091483;28;20131;-82
2022/04/13 07:01:24;;;;;;;20.85;10.43;;;13.60;99.90;;;;;;5108871;28;20047;-82
2022/04/13 07:03:50;;;;;;;15.93;10.20;;;13.80;99.90;;;;;;5091379;28;20103;-82
2022/04/13 07:06:16;;;;;;;16.23;8.80;;;13.90;99.90;;;;;;5089861;28;20407;-82
2022/04/13 07:08:42;;;;;;;17.75;9.93;;;14.10;99.90;;;;;;5090852;28;20054;-81
2022/04/13 07:11:08;;;;;;;17.67;10.30;;;14.20;99.90;;;;;;5090156;28;20035;-81
2022/04/13 07:13:33;;;;;;;17.10;9.43;;;14.30;99.90;;;;;;5073705;28;20583;-81
2022/04/13 07:15:59;;;;;;;16.00;9.00;;;14.40;99.90;;;;;;5090410;28;20086;-80
2022/04/13 07:18:25;;;;;;;17.15;9.68;;;14.40;99.90;;;;;;5089077;28;20040;-81
2022/04/13 07:20:51;;;;;;;19.00;9.50;;;14.40;99.90;;;;;;5109131;28;20191;-82
2022/04/13 07:23:17;;;;;;;22.88;10.32;;;14.40;99.90;;;;;;5089995;28;20529;-82
2022/04/13 07:25:43;;;;;;;17.50;9.00;;;14.40;99.90;;;;;;5073542;28;20092;-82
2022/04/13 07:28:08;;;;;;;19.48;9.75;;;14.50;99.90;;;;;;5108275;28;20035;-81
2022/04/13 07:30:34;;;;;;;18.77;9.23;;;14.60;99.90;;;;;;5090513;28;20156;-81
2022/04/13 07:33:01;;;;;;;19.58;9.38;;;14.70;99.90;;;;;;5069887;28;20078;-81
2022/04/13 07:35:29;;;;;;;14.15;8.10;;;14.80;99.90;;;;;;5086690;28;20052;-81
2022/04/13 07:37:55;;;;;;;15.07;8.95;;;15.00;99.90;;;;;;5088710;28;20051;-80
2022/04/13 07:40:21;;;;;;;20.17;8.18;;;15.10;99.90;;;;;;5069698;28;20157;-81
2022/04/13 07:42:46;;;;;;;16.60;8.35;;;15.30;99.90;;;;;;5088601;28;20506;-82
2022/04/13 07:45:12;;;;;;;14.43;7.68;;;15.50;99.90;;;;;;5069006;28;20079;-82
2022/04/13 07:47:38;;;;;;;14.57;7.45;;;15.80;99.90;;;;;;5087345;28;20126;-82
2022/04/13 07:50:06;;;;;;;15.52;8.35;;;15.60;99.90;;;;;;5070193;28;20478;-82
2022/04/13 07:52:34;;;;;;;16.90;8.13;;;15.60;99.90;;;;;;5069347;28;20197;-82
2022/04/13 07:54:59;;;;;;;15.82;7.78;;;15.60;99.90;;;;;;5069958;28;20047;-82
2022/04/13 07:57:25;;;;;;;13.00;7.38;;;15.50;99.90;;;;;;5086701;28;20048;-82
2022/04/13 07:59:51;;;;;;;16.63;8.07;;;15.50;99.90;;;;;;5088425;28;20044;-82
2022/04/13 08:02:20;;;;;;;11.07;7.22;;;15.50;99.90;;;;;;5085640;28;20574;-82
2022/04/13 08:04:46;;;;;;;17.73;8.10;;;15.50;99.90;;;;;;5086280;28;20399;-82
2022/04/13 08:07:13;;;;;;;20.90;7.85;;;15.50;99.90;;;;;;5087792;28;20497;-81
2022/04/13 08:09:39;;;;;;;17.17;7.97;;;15.50;99.90;;;;;;5087685;28;20036;-81
2022/04/13 08:12:05;;;;;;;16.08;7.38;;;15.50;99.90;;;;;;5087220;28;20040;-81
2022/04/13 08:14:31;;;;;;;15.05;8.43;;;15.50;99.90;;;;;;5087144;28;20047;-81
2022/04/13 08:16:56;;;;;;;15.50;7.60;;;15.50;99.90;;;;;;5095052;28;20113;-81
2022/04/13 08:19:23;;;;;;;13.77;7.40;;;15.50;99.90;;;;;;5075281;28;20075;-81
2022/04/13 08:21:49;;;;;;;15.30;7.63;;;15.50;99.90;;;;;;5090315;28;20095;-80
2022/04/13 08:24:17;;;;;;;12.52;8.15;;;15.50;99.90;;;;;;5087822;28;20558;-82
2022/04/13 08:26:44;;;;;;;16.17;7.30;;;15.60;99.90;;;;;;5069450;28;20047;-82
2022/04/13 08:29:10;;;;;;;20.98;7.03;;;15.70;99.90;;;;;;5087689;28;20036;-80
2022/04/13 08:31:36;;;;;;;17.55;7.55;;;15.80;99.90;;;;;;5085684;28;20032;-81
2022/04/13 08:34:02;;;;;;;12.38;7.35;;;16.00;99.90;;;;;;5069462;28;20063;-81
2022/04/13 08:36:28;;;;;;;16.90;6.85;;;16.10;99.90;;;;;;5085116;28;20052;-82
2022/04/13 08:38:53;;;;;;;10.98;7.30;;;16.30;99.90;;;;;;5087219;28;20149;-82
2022/04/13 08:41:36;;;;;;;14.25;7.15;;;16.30;99.90;;;;;;5085872;28;20063;-81
2022/04/13 08:44:15;;;;;;;13.87;6.47;;;16.40;99.90;;;;;;5086842;28;20395;-81
2022/04/13 08:46:43;;;;;;;13.57;7.05;;;16.60;99.90;;;;;;5069157;28;20799;-81
2022/04/13 08:49:10;;;;;;;10.65;5.82;;;16.70;99.90;;;;;;5068508;28;20640;-81
2022/04/13 08:51:36;;;;;;;12.90;8.00;;;16.80;99.90;;;;;;5068941;28;20044;-81
2022/04/13 08:54:21;;;;;;;11.82;6.68;;;17.00;99.90;;;;;;5085559;28;20048;-81
2022/04/13 08:56:49;;;;;;;11.98;6.43;;;17.30;99.90;;;;;;5085050;28;20452;-81
2022/04/13 08:59:35;;;;;;;12.52;5.90;;;17.50;99.90;;;;;;5086257;28;20086;-82
2022/04/13 09:02:25;;;;;;;9.50;6.35;;;17.70;99.90;;;;;;5085366;28;20040;-82
2022/04/13 09:04:56;;;;;;;9.45;5.28;;;17.90;99.90;;;;;;5085422;28;20048;-81
2022/04/13 09:07:25;;;;;;;14.27;5.95;;;18.10;99.90;;;;;;5085990;28;20114;-82
2022/04/13 09:09:54;;;;;;;13.20;5.65;;;18.10;99.90;;;;;;5085197;28;20461;-82
2022/04/13 09:12:20;;;;;;;12.90;5.60;;;18.00;99.90;;;;;;5086076;28;20043;-80
2022/04/13 09:14:46;;;;;;;11.15;5.18;;;17.90;99.90;;;;;;5068033;28;20563;-81
2022/04/13 09:17:12;;;;;;;12.07;4.93;;;17.70;99.90;;;;;;5068887;28;20135;-81
2022/04/13 09:19:38;;;;;;;8.88;4.65;;;17.60;99.90;;;;;;5086887;28;20040;-81
2022/04/13 09:22:09;;;;;;;9.85;5.00;;;17.60;99.90;;;;;;5086892;28;20414;-81
2022/04/13 09:24:37;;;;;;;10.70;5.13;;;17.50;99.90;;;;;;5069481;28;20036;-82
2022/04/13 09:27:04;;;;;;;10.13;5.63;;;17.60;99.90;;;;;;5068508;28;20055;-81
2022/04/13 09:29:30;;;;;;;10.60;5.45;;;17.80;99.90;;;;;;5085672;28;20050;-81
2022/04/13 09:31:56;;;;;;;9.55;5.03;;;17.90;99.90;;;;;;5088821;28;20107;-81
2022/04/13 09:34:22;;;;;;;15.90;5.38;;;18.10;99.90;;;;;;5107345;28;20542;-81
2022/04/13 09:36:48;;;;;;;13.60;4.57;;;18.30;99.90;;;;;;5071897;28;20096;-80
2022/04/13 09:39:16;;;;;;;8.38;4.05;;;18.70;99.90;;;;;;5106962;28;20044;-81
2022/04/13 09:41:41;;;;;;;8.23;5.15;;;18.80;99.90;;;;;;5108620;28;20538;-81
2022/04/13 09:44:15;;;;;;;9.88;4.82;;;18.90;99.90;;;;;;5091729;28;20135;-80
2022/04/13 09:46:43;;;;;;;7.28;4.03;;;19.00;99.90;;;;;;5075438;28;20123;-81
2022/04/13 09:49:17;;;;;;;7.95;3.83;;;19.10;99.90;;;;;;5092565;28;20367;-81
2022/04/13 09:51:47;;;;;;;4.97;3.30;;;19.10;99.60;;;;;;5076068;28;20458;-81
2022/04/13 09:54:14;;;;;;;8.15;4.07;;;19.20;99.60;;;;;;5093399;28;20046;-81
2022/04/13 09:56:46;;;;;;;8.13;4.18;;;19.20;98.90;;;;;;5094318;28;20131;-81
2022/04/13 09:59:12;;;;;;;;;;;19.20;99.00;;;;;;5096840;28;20095;-82
2022/04/13 10:01:38;;;;;;;7.53;4.53;;;19.20;98.60;;;;;;5076614;28;19927;-80
2022/04/13 10:04:04;;;;;;;8.00;4.10;;;19.30;99.60;;;;;;5060317;28;20040;-81
2022/04/13 10:06:33;;;;;;;10.88;5.03;;;19.40;99.60;;;;;;5059010;28;20517;-81
2022/04/13 10:09:08;;;;;;;6.28;3.85;;;19.40;99.00;;;;;;5091639;28;20515;-82
2022/04/13 10:11:34;;;;;;;6.22;2.83;;;19.50;97.90;;;;;;5092239;28;20039;-82
2022/04/13 10:14:02;;;;;;;6.38;2.97;;;19.60;98.90;;;;;;5109797;28;20043;-82
2022/04/13 10:16:35;;;;;;;6.68;3.25;;;19.70;97.20;;;;;;5110513;28;20051;-81
2022/04/13 10:19:03;;;;;;;5.82;2.55;;;19.60;96.40;;;;;;5074973;28;20391;-81
2022/04/13 10:21:49;;;;;;;4.43;2.83;;;19.60;96.10;;;;;;5074984;28;20313;-81
2022/04/13 10:24:21;;;;;;;7.25;3.17;;;19.50;91.90;;;;;;5091883;28;20043;-81
2022/04/13 10:27:05;;;;;;;8.10;2.40;;;19.50;93.60;;;;;;5091458;28;20039;-82
2022/04/13 10:29:33;;;;;;;3.30;1.63;;;19.40;91.20;;;;;;5092020;28;20044;-82
2022/04/13 10:32:04;;;;;;;5.95;1.33;;;19.30;94.50;;;;;;5091513;28;20048;-82
2022/04/13 10:34:31;;;;;;;5.05;2.40;;;19.30;92.90;;;;;;5091371;28;20051;-81
2022/04/13 10:36:57;;;;;;;6.60;2.55;;;19.40;93.10;;;;;;5091394;28;20082;-81
2022/04/13 10:39:23;;;;;;;4.90;1.85;;;19.30;92.60;;;;;;5090861;28;20088;-81
2022/04/13 10:41:49;;;;;;;6.95;2.35;;;19.40;92.90;;;;;;5074775;28;20047;-81
2022/04/13 10:44:27;;;;;;;8.52;3.15;;;19.50;93.00;;;;;;5074045;28;20506;-81
2022/04/13 10:46:56;;;;;;;4.80;2.35;;;19.70;91.00;;;;;;5110114;28;20565;-84
2022/04/13 10:49:26;;;;;;;6.28;2.40;;;19.80;91.00;;;;;;5109992;28;20053;-79
2022/04/13 10:51:56;;;;;;;3.58;2.22;;;19.80;91.60;;;;;;5090967;28;20035;-79
2022/04/13 10:54:26;;;;;;;5.45;2.50;;;19.80;90.90;;;;;;5091556;28;20089;-80
2022/04/13 10:56:56;;;;;;;5.55;2.85;;;19.50;90.30;;;;;;5073557;28;20050;-79
2022/04/13 10:59:36;;;;;;;4.25;2.35;;;19.80;90.80;;;;;;5091563;28;20036;-80
2022/04/13 11:02:10;;;;;;;2.78;1.90;;;20.00;89.90;;;;;;5074270;28;20053;-79
2022/04/13 11:04:37;;;;;;;6.35;2.45;;;20.20;88.20;;;;;;5090282;28;20051;-80
2022/04/13 11:07:04;;;;;;;6.68;2.65;;;20.30;87.20;;;;;;5109294;28;20540;-80
2022/04/13 11:09:36;;;;;;;4.65;1.90;;;20.40;84.90;;;;;;5073380;28;20487;-80
2022/04/13 11:12:03;;;;;;;3.70;2.28;;;20.50;83.90;;;;;;5074587;28;20130;-79
2022/04/13 11:14:29;;;;;;;2.97;1.88;;;20.70;83.70;;;;;;5109381;28;20431;-79
2022/04/13 11:17:17;;;;;;;5.45;2.20;;;20.80;81.50;;;;;;5090936;28;20082;-79
2022/04/13 11:19:43;;;;;;;5.13;1.42;;;20.80;76.40;;;;;;5095508;28;20067;-78
2022/04/13 11:22:15;;;;;;;6.03;1.75;;;20.80;80.20;;;;;;5090540;28;20039;-78
2022/04/13 11:25:02;;;;;;;5.47;1.77;;;20.70;76.30;;;;;;5109357;28;20408;-79
2022/04/13 11:27:48;;;;;;;4.10;1.60;;;20.60;77.80;;;;;;5107836;28;20803;-79
2022/04/13 11:30:14;;;;;;;6.68;2.55;;;20.50;74.30;;;;;;5108570;28;20070;-79
2022/04/13 11:32:40;;;;;;;6.32;1.80;;;20.50;78.60;;;;;;5070386;28;20407;-79
2022/04/13 11:35:06;;;;;;;6.60;1.98;;;20.50;77.90;;;;;;5088096;28;20407;-79
2022/04/13 11:37:35;;;;;;;4.55;2.45;;;20.60;77.80;;;;;;5089021;28;20127;-80
2022/04/13 11:40:05;;;;;;;5.53;2.50;;;20.60;76.70;;;;;;5088234;28;20055;-82
2022/04/13 11:42:40;;;;;;;6.55;2.92;;;20.50;74.80;;;;;;5087589;28;20059;-81
2022/04/13 11:45:14;;;;;;;7.75;2.47;;;20.30;76.20;;;;;;5090206;28;20079;-82
2022/04/13 11:47:59;;;;;;;6.10;2.97;;;20.20;78.80;;;;;;5091300;28;20044;-78
2022/04/13 11:50:33;;;;;;;5.45;2.17;;;20.00;79.60;;;;;;5091372;28;20093;-80
2022/04/13 11:53:01;;;;;;;5.63;2.55;;;20.00;85.30;;;;;;5086586;28;20127;-79
2022/04/13 11:55:44;;;;;;;7.32;2.40;;;19.90;86.00;;;;;;5086046;28;20044;-79
2022/04/13 11:58:09;;;;;;;6.25;2.10;;;19.80;84.30;;;;;;5086718;28;20098;-78
2022/04/13 12:00:41;;;;;;;6.78;2.20;;;19.60;87.90;;;;;;5086102;28;20044;-79
2022/04/13 12:03:20;;;;;;;5.57;2.28;;;19.50;88.10;;;;;;5086537;28;20056;-79
2022/04/13 12:05:48;;;;;;;8.45;2.22;;;19.40;89.30;;;;;;5085431;28;20047;-80
2022/04/13 12:08:20;;;;;;;3.90;1.75;;;19.40;90.00;;;;;;5087770;28;20032;-80
2022/04/13 12:11:07;;;;;;;2.40;0.98;;;19.40;87.40;;;;;;5086555;28;20042;-79
2022/04/13 12:13:51;;;;;;;4.78;1.58;;;19.30;87.90;;;;;;5087372;28;20047;-79
2022/04/13 12:16:26;;;;;;;7.35;1.55;;;19.20;86.30;;;;;;5086365;28;20050;-79
2022/04/13 12:18:55;;;;;;;4.72;1.75;;;19.00;89.50;;;;;;5086230;28;20052;-78
2022/04/13 12:21:23;;;;;;;6.30;1.45;;;18.90;90.50;;;;;;5085621;28;20426;-78
2022/04/13 12:23:49;;;;;;;6.93;2.08;;;18.80;91.10;;;;;;5069947;28;20402;-76
2022/04/13 12:26:15;;;;;;;5.75;1.98;;;18.80;91.80;;;;;;5087394;28;20087;-77
2022/04/13 12:28:41;;;;;;;6.28;1.90;;;18.70;92.70;;;;;;5086088;28;20086;-77
2022/04/13 12:31:07;;;;;;;5.50;1.88;;;18.70;92.70;;;;;;5086810;28;20476;-77
2022/04/13 12:33:34;;;;;;;6.65;2.08;;;18.70;92.90;;;;;;5085759;28;20062;-77
2022/04/13 12:36:02;;;;;;;7.07;2.42;;;18.70;93.20;;;;;;5086403;28;20059;-78
2022/04/13 12:38:35;;;;;;;5.90;2.35;;;18.70;93.60;;;;;;5086121;28;20055;-77
2022/04/13 12:41:14;;;;;;;5.88;2.60;;;18.80;94.50;;;;;;5069144;28;20040;-77
2022/04/13 12:43:44;;;;;;;9.35;2.55;;;18.80;94.30;;;;;;5087109;28;20040;-78
2022/04/13 12:46:15;;;;;;;8.45;2.63;;;18.80;94.30;;;;;;5086466;28;20040;-78
2022/04/13 12:48:43;;;;;;;7.82;1.92;;;18.70;94.50;;;;;;5086345;28;20101;-81
2022/04/13 12:51:09;;;;;;;8.07;2.83;;;18.50;95.10;;;;;;5086516;28;20051;-78
2022/04/13 12:53:47;;;;;;;3.95;1.80;;;18.40;95.70;;;;;;5087475;28;20094;-78
2022/04/13 12:56:15;;;;;;;9.07;3.25;;;18.20;96.70;;;;;;5068457;28;20055;-77
2022/04/13 12:58:42;;;;;;;8.63;2.83;;;17.80;97.20;;;;;;5069033;28;20185;-79